Time;durP1;ratioP1;P1;durP2;ratioP2;P2;SDS_P1;SDS_P2;PMS_P1;PMS_P2;Temp;Humidity;BMP_temperature;BMP_pressure;BME280_temperature;BME280_humidity;BME280_pressure;Samples;Min_cycle;Max_cycle;Signal;HPM_P1;HPM_P2
2023/08/24 00:01:21;;;;;;;23.55;15.32;;;717.00;2432.00;;;;;;5069777;28;20468;-70
2023/08/24 00:03:47;;;;;;;20.67;16.65;;;717.10;2432.00;;;;;;5065027;28;20465;-70
2023/08/24 00:06:13;;;;;;;24.92;16.35;;;717.20;2432.00;;;;;;5069189;28;20598;-70
2023/08/24 00:08:39;;;;;;;24.35;17.80;;;716.90;2432.00;;;;;;5070756;28;20115;-72
2023/08/24 00:11:05;;;;;;;21.08;16.23;;;717.20;2432.00;;;;;;5063393;28;20090;-72
2023/08/24 00:13:32;;;;;;;26.60;17.02;;;717.10;2432.00;;;;;;5073716;28;20110;-70
2023/08/24 00:15:57;;;;;;;23.65;16.20;;;717.00;2432.00;;;;;;5064987;28;20035;-70
2023/08/24 00:18:24;;;;;;;18.23;16.13;;;717.00;2432.00;;;;;;5069379;28;20045;-70
2023/08/24 00:20:49;;;;;;;22.08;17.50;;;716.80;2432.00;;;;;;5068526;28;20036;-70
2023/08/24 00:23:16;;;;;;;24.38;15.77;;;716.80;2432.00;;;;;;5064393;28;20025;-72
2023/08/24 00:25:41;;;;;;;24.83;17.50;;;692.10;2432.00;;;;;;5069250;28;20021;-70
2023/08/24 00:28:07;;;;;;;23.85;17.17;;;692.10;2432.00;;;;;;5069746;28;20027;-70
2023/08/24 00:30:33;;;;;;;23.38;16.23;;;692.10;2432.00;;;;;;5064184;28;20473;-70
2023/08/24 00:32:59;;;;;;;25.85;17.65;;;692.10;2432.00;;;;;;5072998;28;20048;-70
2023/08/24 00:35:25;;;;;;;26.35;17.27;;;716.80;2432.00;;;;;;5068706;28;20033;-70
2023/08/24 00:37:51;;;;;;;22.67;15.55;;;692.10;2432.00;;;;;;5064110;28;20016;-71
2023/08/24 00:40:17;;;;;;;20.30;14.93;;;692.10;2432.00;;;;;;5069304;28;20121;-70
2023/08/24 00:42:45;;;;;;;23.70;15.13;;;692.10;2432.00;;;;;;5065218;28;20132;-70
2023/08/24 00:45:12;;;;;;;17.35;15.18;;;692.10;2432.00;;;;;;5064637;28;20027;-70
2023/08/24 00:47:40;;;;;;;23.95;15.98;;;692.10;2432.00;;;;;;5067731;28;20032;-70
2023/08/24 00:50:08;;;;;;;21.73;15.32;;;692.00;2432.00;;;;;;5070765;28;20028;-70
2023/08/24 00:52:35;;;;;;;24.10;15.10;;;692.10;2432.00;;;;;;5065825;28;20112;-71
2023/08/24 00:55:02;;;;;;;22.15;14.85;;;692.00;2432.00;;;;;;5064565;28;20028;-70
2023/08/24 00:57:28;;;;;;;27.98;16.13;;;691.80;2432.00;;;;;;5070349;28;20408;-72
2023/08/24 00:59:56;;;;;;;25.73;16.65;;;691.80;2432.00;;;;;;5072109;28;20024;-70
2023/08/24 01:02:21;;;;;;;23.38;13.68;;;691.80;2432.00;;;;;;5072788;28;20040;-70
2023/08/24 01:04:47;;;;;;;21.17;14.93;;;691.80;2432.00;;;;;;5065017;28;20070;-70
2023/08/24 01:07:15;;;;;;;18.00;13.68;;;691.90;2432.00;;;;;;5072009;28;20032;-70
2023/08/24 01:09:42;;;;;;;22.17;14.15;;;692.00;2432.00;;;;;;5066785;28;20069;-72
2023/08/24 01:12:16;;;;;;;17.77;13.73;;;692.10;2432.00;;;;;;5065957;28;20016;-71
2023/08/24 01:14:59;;;;;;;21.45;13.35;;;692.10;2432.00;;;;;;5065940;28;20538;-70
2023/08/24 01:17:30;;;;;;;18.33;12.30;;;692.10;2432.00;;;;;;5063574;28;20025;-72
2023/08/24 01:19:58;;;;;;;16.23;12.38;;;692.10;2432.00;;;;;;5067360;28;20079;-71
2023/08/24 01:22:26;;;;;;;20.60;13.35;;;692.10;2432.00;;;;;;5065594;28;20537;-69
2023/08/24 01:25:10;;;;;;;18.88;12.82;;;692.10;2432.00;;;;;;5071517;28;20024;-72
2023/08/24 01:27:37;;;;;;;18.88;12.70;;;692.00;2432.00;;;;;;5058414;28;20025;-70
2023/08/24 01:30:07;;;;;;;17.05;13.20;;;691.80;2432.00;;;;;;5070006;28;20381;-70
2023/08/24 01:32:34;;;;;;;20.83;13.45;;;691.80;2432.00;;;;;;5072754;28;20020;-70
2023/08/24 01:35:02;;;;;;;14.95;11.75;;;691.80;2432.00;;;;;;5066868;28;20036;-70
2023/08/24 01:37:28;;;;;;;15.13;11.38;;;691.80;2432.00;;;;;;5073468;28;20031;-71
2023/08/24 01:39:59;;;;;;;18.23;12.73;;;691.90;2432.00;;;;;;5071556;28;20029;-71
2023/08/24 01:42:28;;;;;;;18.60;13.07;;;692.00;2432.00;;;;;;5070802;28;20040;-70
2023/08/24 01:44:58;;;;;;;17.27;13.30;;;692.00;2432.00;;;;;;5073066;28;20508;-72
2023/08/24 01:47:26;;;;;;;21.15;13.30;;;692.00;2432.00;;;;;;5072948;28;20485;-72
2023/08/24 01:49:51;;;;;;;18.08;13.52;;;692.10;2432.00;;;;;;5073076;28;20043;-71
2023/08/24 01:52:17;;;;;;;15.52;13.73;;;692.00;2432.00;;;;;;5072962;28;20421;-71
2023/08/24 01:54:43;;;;;;;22.10;13.65;;;691.90;2432.00;;;;;;5072868;28;20512;-71
2023/08/24 01:57:10;;;;;;;18.55;12.68;;;691.90;2432.00;;;;;;5072967;28;20028;-70
2023/08/24 01:59:36;;;;;;;21.55;14.27;;;691.90;2432.00;;;;;;5072914;28;20017;-71
2023/08/24 02:02:02;;;;;;;18.27;12.68;;;691.80;2432.00;;;;;;5076495;28;20425;-71
2023/08/24 02:04:28;;;;;;;19.25;13.95;;;691.90;2432.00;;;;;;5077095;28;20025;-70
2023/08/24 02:06:54;;;;;;;20.48;13.38;;;691.90;2432.00;;;;;;5077112;28;20034;-70
2023/08/24 02:09:19;;;;;;;21.40;13.60;;;691.90;2432.00;;;;;;5076903;28;20040;-71
2023/08/24 02:11:45;;;;;;;19.10;12.73;;;691.90;2432.00;;;;;;5077007;28;20050;-70
2023/08/24 02:14:11;;;;;;;17.13;13.05;;;691.90;2432.00;;;;;;5076712;28;20438;-70
2023/08/24 02:16:36;;;;;;;18.33;13.73;;;692.00;2432.00;;;;;;5077013;28;20024;-74
2023/08/24 02:19:02;;;;;;;17.40;12.40;;;692.00;2432.00;;;;;;5076503;28;20045;-71
2023/08/24 02:21:28;;;;;;;19.92;13.43;;;692.00;2432.00;;;;;;5076805;28;20032;-73
2023/08/24 02:23:53;;;;;;;14.82;12.60;;;692.10;2432.00;;;;;;5076551;28;20059;-70
2023/08/24 02:26:21;;;;;;;17.88;13.20;;;692.00;2432.00;;;;;;5076770;28;20477;-70
2023/08/24 02:28:46;;;;;;;20.17;13.25;;;692.00;2432.00;;;;;;5076504;28;20142;-72
2023/08/24 02:31:12;;;;;;;17.67;13.30;;;692.00;2432.00;;;;;;5076428;28;20107;-70
2023/08/24 02:33:38;;;;;;;18.15;13.20;;;691.90;2432.00;;;;;;5076313;28;20035;-70
2023/08/24 02:36:04;;;;;;;23.30;13.88;;;692.00;2432.00;;;;;;5076474;28;20016;-71
2023/08/24 02:38:29;;;;;;;22.38;13.90;;;691.90;2432.00;;;;;;5076370;28;20074;-72
2023/08/24 02:41:05;;;;;;;22.80;13.88;;;691.90;2432.00;;;;;;5076024;28;20124;-71
2023/08/24 02:43:34;;;;;;;17.95;13.75;;;691.80;2432.00;;;;;;5076171;28;20016;-71
2023/08/24 02:46:03;;;;;;;17.30;12.82;;;691.80;2432.00;;;;;;5076065;28;20025;-70
2023/08/24 02:48:30;;;;;;;15.57;12.82;;;691.90;2432.00;;;;;;5076360;28;20103;-71
2023/08/24 02:51:01;;;;;;;20.88;12.77;;;691.80;2432.00;;;;;;5076113;28;20040;-71
2023/08/24 02:53:27;;;;;;;25.30;13.38;;;691.80;2432.00;;;;;;5076284;28;20515;-72
2023/08/24 02:55:53;;;;;;;19.80;14.27;;;691.90;2432.00;;;;;;5075834;28;20384;-71
2023/08/24 02:58:19;;;;;;;17.52;12.60;;;692.00;2432.00;;;;;;5075857;28;20027;-70
2023/08/24 03:00:46;;;;;;;23.83;14.35;;;692.00;2432.00;;;;;;5075672;28;20025;-73
2023/08/24 03:03:15;;;;;;;15.45;13.52;;;691.80;2432.00;;;;;;5075988;28;20035;-71
2023/08/24 03:05:51;;;;;;;16.65;12.70;;;691.80;2432.00;;;;;;5075936;28;20025;-74
2023/08/24 03:08:16;;;;;;;;;;;691.70;2432.00;;;;;;5076285;28;20025;-70
2023/08/24 03:10:42;;;;;;;16.98;13.05;;;691.70;2432.00;;;;;;5075674;28;19904;-71
2023/08/24 03:13:08;;;;;;;18.30;14.15;;;691.60;2432.00;;;;;;5075519;28;20028;-70
2023/08/24 03:15:35;;;;;;;15.82;13.20;;;691.60;2432.00;;;;;;5075596;28;20021;-70
2023/08/24 03:18:01;;;;;;;17.23;13.35;;;691.60;2432.00;;;;;;5075383;28;20550;-70
2023/08/24 03:20:26;;;;;;;17.15;12.95;;;691.60;2432.00;;;;;;5075547;28;20021;-71
2023/08/24 03:22:52;;;;;;;19.30;13.52;;;691.50;2432.00;;;;;;5075359;28;20032;-70
2023/08/24 03:25:18;;;;;;;23.15;14.93;;;691.50;2432.00;;;;;;5075484;28;20073;-71
2023/08/24 03:27:43;;;;;;;20.45;14.60;;;691.50;2432.00;;;;;;5075330;28;20378;-71
2023/08/24 03:30:09;;;;;;;24.23;14.98;;;691.50;2432.00;;;;;;5075480;28;20059;-73
2023/08/24 03:32:35;;;;;;;22.83;14.82;;;691.50;2432.00;;;;;;5075439;28;20090;-72
2023/08/24 03:35:02;;;;;;;21.48;15.68;;;691.60;2432.00;;;;;;5075343;28;20020;-72
2023/08/24 03:37:28;;;;;;;18.60;14.23;;;691.60;2432.00;;;;;;5075360;28;20048;-71
2023/08/24 03:39:54;;;;;;;16.83;13.60;;;691.50;2432.00;;;;;;5075103;28;20079;-71
2023/08/24 03:42:20;;;;;;;21.38;15.20;;;691.50;2432.00;;;;;;5075069;28;20040;-70
2023/08/24 03:44:45;;;;;;;22.10;14.45;;;691.50;2432.00;;;;;;5075065;28;20039;-70
2023/08/24 03:47:11;;;;;;;17.30;14.02;;;691.50;2432.00;;;;;;5075027;28;20040;-72
2023/08/24 03:49:37;;;;;;;19.73;14.90;;;691.50;2432.00;;;;;;5074964;28;20473;-71
2023/08/24 03:52:03;;;;;;;17.65;14.50;;;691.50;2432.00;;;;;;5075068;28;20031;-70
2023/08/24 03:54:29;;;;;;;19.05;14.20;;;691.40;2432.00;;;;;;5074670;28;20107;-71
2023/08/24 03:56:55;;;;;;;17.73;14.00;;;691.40;2432.00;;;;;;5074872;28;20104;-70
2023/08/24 03:59:20;;;;;;;21.45;15.18;;;691.40;2432.00;;;;;;5074703;28;20048;-71
2023/08/24 04:01:46;;;;;;;20.80;14.18;;;691.40;2432.00;;;;;;5074664;28;20033;-70
2023/08/24 04:04:12;;;;;;;16.98;13.80;;;691.30;2432.00;;;;;;5074620;28;20017;-70
2023/08/24 04:06:37;;;;;;;21.15;14.25;;;691.40;2432.00;;;;;;5074601;28;20029;-74
2023/08/24 04:09:06;;;;;;;17.85;14.57;;;691.40;2432.00;;;;;;5074589;28;20025;-70
2023/08/24 04:11:32;;;;;;;16.95;14.30;;;691.40;2432.00;;;;;;5074599;28;20024;-73
2023/08/24 04:13:57;;;;;;;22.27;13.88;;;691.40;2432.00;;;;;;5074334;28;20025;-76
2023/08/24 04:16:23;;;;;;;21.05;14.25;;;691.40;2432.00;;;;;;5074475;28;20487;-71
2023/08/24 04:18:49;;;;;;;26.17;14.52;;;691.40;2432.00;;;;;;5074147;28;20502;-70
2023/08/24 04:21:14;;;;;;;35.80;15.20;;;691.40;2432.00;;;;;;5074238;28;20111;-71
2023/08/24 04:23:44;;;;;;;19.88;13.63;;;691.30;2432.00;;;;;;5073895;28;20025;-71
2023/08/24 04:26:11;;;;;;;20.23;14.48;;;691.30;2432.00;;;;;;5070873;28;20021;-71
2023/08/24 04:28:37;;;;;;;19.00;15.40;;;691.20;2432.00;;;;;;5069027;28;20107;-71
2023/08/24 04:31:03;;;;;;;26.27;15.27;;;691.20;2432.00;;;;;;5064885;28;20028;-70
2023/08/24 04:33:29;;;;;;;22.02;13.85;;;691.30;2432.00;;;;;;5069357;28;20025;-70
2023/08/24 04:35:55;;;;;;;20.95;15.50;;;691.30;2432.00;;;;;;5066731;28;20039;-71
2023/08/24 04:38:20;;;;;;;19.52;14.27;;;691.30;2432.00;;;;;;5062454;28;20049;-70
2023/08/24 04:40:56;;;;;;;21.02;14.98;;;691.20;2432.00;;;;;;5073008;28;20498;-70
2023/08/24 04:43:22;;;;;;;;;;;691.30;2432.00;;;;;;5065746;28;20106;-70
2023/08/24 04:45:53;;;;;;;21.77;15.30;;;691.30;2432.00;;;;;;5060899;28;19912;-70
2023/08/24 04:48:20;;;;;;;19.70;15.30;;;691.20;2432.00;;;;;;5064176;28;20074;-70
2023/08/24 04:50:46;;;;;;;22.50;15.55;;;691.20;2432.00;;;;;;5062922;28;20042;-70
2023/08/24 04:53:19;;;;;;;18.13;14.38;;;691.30;2432.00;;;;;;5070250;28;20047;-70
2023/08/24 04:55:45;;;;;;;21.80;14.27;;;691.30;2432.00;;;;;;5068559;28;20074;-70
2023/08/24 04:58:13;;;;;;;21.65;15.65;;;691.30;2432.00;;;;;;5064060;28;20025;-70
2023/08/24 05:00:38;;;;;;;17.70;15.23;;;691.30;2432.00;;;;;;5064145;28;20040;-70
2023/08/24 05:03:05;;;;;;;21.65;14.30;;;691.30;2432.00;;;;;;5063766;28;20059;-70
2023/08/24 05:05:32;;;;;;;18.73;15.25;;;691.30;2432.00;;;;;;5068729;28;20025;-69
2023/08/24 05:07:59;;;;;;;22.05;15.00;;;691.30;2432.00;;;;;;5061285;28;20427;-72
2023/08/24 05:10:25;;;;;;;20.45;15.60;;;691.20;2432.00;;;;;;5070392;28;20075;-70
2023/08/24 05:12:51;;;;;;;19.58;15.63;;;691.30;2432.00;;;;;;5069336;28;20021;-72
2023/08/24 05:15:17;;;;;;;21.45;15.65;;;691.30;2432.00;;;;;;5061980;28;20025;-73
2023/08/24 05:17:43;;;;;;;25.98;16.05;;;691.30;2432.00;;;;;;5065915;28;20415;-72
2023/08/24 05:20:12;;;;;;;28.35;17.55;;;691.40;2432.00;;;;;;5067569;28;20040;-71
2023/08/24 05:22:38;;;;;;;25.67;16.88;;;691.30;2432.00;;;;;;5063993;28;20067;-70
2023/08/24 05:25:04;;;;;;;23.35;15.98;;;691.40;2432.00;;;;;;5063524;28;20017;-72
2023/08/24 05:27:31;;;;;;;21.90;16.02;;;666.40;2432.00;;;;;;5069021;28;20031;-72
2023/08/24 05:29:57;;;;;;;20.83;15.27;;;691.40;2432.00;;;;;;5066727;28;20020;-70
2023/08/24 05:32:23;;;;;;;25.67;15.05;;;691.30;2432.00;;;;;;5070147;28;20028;-71
2023/08/24 05:34:49;;;;;;;24.65;15.98;;;691.30;2432.00;;;;;;5060714;28;20485;-70
2023/08/24 05:37:15;;;;;;;24.52;16.15;;;691.50;2432.00;;;;;;5067808;28;20067;-70
2023/08/24 05:39:41;;;;;;;26.33;15.15;;;691.50;2432.00;;;;;;5059949;28;20100;-70
2023/08/24 05:42:07;;;;;;;22.00;14.85;;;691.60;2432.00;;;;;;5071961;28;20040;-70
2023/08/24 05:44:33;;;;;;;23.27;15.27;;;691.60;2432.00;;;;;;5063495;28;20027;-70
2023/08/24 05:46:58;;;;;;;17.55;13.10;;;691.70;2432.00;;;;;;5070744;28;20028;-72
2023/08/24 05:49:24;;;;;;;22.17;13.55;;;691.90;2432.00;;;;;;5070026;28;20035;-72
2023/08/24 05:51:51;;;;;;;21.73;12.88;;;691.90;2432.00;;;;;;5067560;28;20540;-71
2023/08/24 05:54:20;;;;;;;16.50;12.50;;;691.90;2432.00;;;;;;5067168;28;20027;-72
2023/08/24 05:56:46;;;;;;;21.80;13.40;;;691.90;2432.00;;;;;;5066727;28;20112;-71
2023/08/24 05:59:12;;;;;;;21.15;13.82;;;692.10;2432.00;;;;;;5066966;28;20058;-70
2023/08/24 06:01:38;;;;;;;19.20;12.95;;;716.90;2432.00;;;;;;5069940;28;20060;-75
2023/08/24 06:04:08;;;;;;;21.27;13.70;;;717.10;2432.00;;;;;;5066547;28;20017;-71
2023/08/24 06:06:35;;;;;;;23.98;13.63;;;717.10;2432.00;;;;;;5062829;28;20047;-70
2023/08/24 06:09:04;;;;;;;22.98;13.15;;;717.20;2432.00;;;;;;5065758;28;20100;-71
2023/08/24 06:11:29;;;;;;;25.15;14.15;;;717.40;2432.00;;;;;;5070137;28;20476;-70
2023/08/24 06:13:55;;;;;;;18.10;12.85;;;717.40;2432.00;;;;;;5063021;28;20025;-70
2023/08/24 06:16:21;;;;;;;21.50;12.95;;;717.50;2432.00;;;;;;5067800;28;20108;-70
2023/08/24 06:18:46;;;;;;;19.67;12.80;;;717.70;2432.00;;;;;;5062120;28;20405;-70
2023/08/24 06:21:12;;;;;;;17.10;13.35;;;742.40;2432.00;;;;;;5069258;28;20202;-71
2023/08/24 06:23:38;;;;;;;20.65;13.45;;;742.40;2432.00;;;;;;5062903;28;20052;-72
2023/08/24 06:26:04;;;;;;;17.73;13.07;;;742.50;2432.00;;;;;;5062404;28;20078;-71
2023/08/24 06:28:30;;;;;;;20.30;13.50;;;742.50;2432.00;;;;;;5067363;28;20025;-71
2023/08/24 06:30:57;;;;;;;23.98;17.38;;;742.60;2432.00;;;;;;5067118;28;20036;-71
2023/08/24 06:33:30;;;;;;;18.67;12.50;;;742.80;2432.00;;;;;;5063502;28;20104;-71
2023/08/24 06:35:57;;;;;;;16.00;11.43;;;742.90;2432.00;;;;;;5066236;28;20029;-72
2023/08/24 06:38:23;;;;;;;21.42;13.13;;;743.00;2432.00;;;;;;5063059;28;20100;-71
2023/08/24 06:40:48;;;;;;;27.73;19.38;;;743.00;2432.00;;;;;;5071405;28;20162;-71
2023/08/24 06:43:14;;;;;;;20.85;13.90;;;743.30;2432.00;;;;;;5070604;28;20052;-72
2023/08/24 06:45:41;;;;;;;16.67;12.73;;;768.00;2432.00;;;;;;5066330;28;20021;-70
2023/08/24 06:48:07;;;;;;;22.83;13.65;;;768.10;2432.00;;;;;;5069175;28;20449;-72
2023/08/24 06:50:33;;;;;;;23.10;13.20;;;768.20;2432.00;;;;;;5066897;28;20027;-76
2023/08/24 06:52:59;;;;;;;23.60;12.13;;;768.20;2432.00;;;;;;5057980;28;20388;-72
2023/08/24 06:55:27;;;;;;;17.38;12.27;;;768.40;2432.00;;;;;;5064174;28;20035;-73
2023/08/24 06:57:52;;;;;;;18.27;11.65;;;768.40;2432.00;;;;;;5063838;28;20021;-72
2023/08/24 07:00:19;;;;;;;22.83;11.38;;;768.60;2432.00;;;;;;5072702;28;20028;-72
2023/08/24 07:02:47;;;;;;;22.92;12.05;;;768.80;2432.00;;;;;;5069520;28;20037;-71
2023/08/24 07:05:12;;;;;;;22.80;11.48;;;793.60;2432.00;;;;;;5068537;28;20020;-71
2023/08/24 07:07:38;;;;;;;26.35;11.43;;;793.80;2432.00;;;;;;5064319;28;20091;-70
2023/08/24 07:10:06;;;;;;;14.45;10.95;;;793.80;2432.00;;;;;;5075047;28;20024;-72
2023/08/24 07:12:31;;;;;;;18.67;11.13;;;793.90;2432.00;;;;;;5068735;28;20078;-71
2023/08/24 07:14:57;;;;;;;15.80;10.77;;;794.10;2432.00;;;;;;5064103;28;20020;-71
2023/08/24 07:17:23;;;;;;;17.45;10.15;;;794.20;2432.00;;;;;;5071196;28;20475;-71
2023/08/24 07:19:49;;;;;;;20.83;12.68;;;794.50;2432.00;;;;;;5071242;28;20190;-71
2023/08/24 07:22:15;;;;;;;24.67;14.35;;;794.50;2432.00;;;;;;5067794;28;20556;-71
2023/08/24 07:24:41;;;;;;;22.48;15.45;;;819.20;2432.00;;;;;;5069116;28;20108;-72
2023/08/24 07:27:08;;;;;;;24.80;12.45;;;819.50;2432.00;;;;;;5071724;28;20032;-70
2023/08/24 07:29:34;;;;;;;17.77;11.23;;;819.40;2432.00;;;;;;5065414;28;20029;-71
2023/08/24 07:32:00;;;;;;;19.80;10.45;;;819.80;2432.00;;;;;;5068944;28;20049;-71
2023/08/24 07:34:26;;;;;;;15.52;9.52;;;819.80;2432.00;;;;;;5066223;28;20103;-72
2023/08/24 07:36:51;;;;;;;15.00;9.75;;;820.10;2432.00;;;;;;5074805;28;20024;-70
2023/08/24 07:39:17;;;;;;;17.65;9.18;;;845.00;2432.00;;;;;;5064580;28;20078;-71
2023/08/24 07:41:44;;;;;;;16.92;10.13;;;844.90;2380.80;;;;;;5070084;28;20029;-72
2023/08/24 07:44:09;;;;;;;16.70;10.85;;;845.10;2380.80;;;;;;5067570;28;20470;-71
2023/08/24 07:46:35;;;;;;;20.58;10.35;;;845.20;2355.20;;;;;;5059040;28;20075;-71
2023/08/24 07:49:01;;;;;;;20.88;9.18;;;845.30;2329.60;;;;;;5071193;28;20099;-70
2023/08/24 07:51:28;;;;;;;23.73;10.65;;;845.50;2329.60;;;;;;5066279;28;20033;-73
2023/08/24 07:53:54;;;;;;;19.52;9.15;;;845.70;2252.80;;;;;;5074550;28;20023;-71
2023/08/24 07:56:20;;;;;;;19.25;9.27;;;845.70;2227.20;;;;;;5061016;28;20036;-71
2023/08/24 07:58:45;;;;;;;16.02;8.73;;;870.40;2176.00;;;;;;5068704;28;20033;-72
2023/08/24 08:01:12;;;;;;;15.18;9.55;;;870.40;2176.00;;;;;;5063349;28;20035;-71
2023/08/24 08:03:37;;;;;;;11.75;8.95;;;870.50;2176.00;;;;;;5071088;28;20027;-76
2023/08/24 08:06:04;;;;;;;18.52;8.98;;;870.70;2099.20;;;;;;5073826;28;20021;-71
2023/08/24 08:08:30;;;;;;;13.02;10.25;;;870.50;2176.00;;;;;;5069287;28;20465;-72
2023/08/24 08:11:00;;;;;;;11.80;9.98;;;870.70;2124.80;;;;;;5065654;28;20035;-70
2023/08/24 08:13:28;;;;;;;16.63;9.55;;;870.90;2048.00;;;;;;5069349;28;20050;-71
2023/08/24 08:15:54;;;;;;;18.08;9.75;;;871.10;2022.40;;;;;;5073606;28;20088;-71
2023/08/24 08:18:20;;;;;;;13.50;9.45;;;871.30;2022.40;;;;;;5072307;28;20119;-72
2023/08/24 08:20:50;;;;;;;15.55;9.75;;;871.30;1996.80;;;;;;5069211;28;20040;-70
2023/08/24 08:23:16;;;;;;;17.52;9.90;;;896.20;1920.00;;;;;;5057253;28;20381;-71
2023/08/24 08:25:42;;;;;;;16.67;9.27;;;896.30;1945.60;;;;;;5066704;28;20020;-71
2023/08/24 08:28:07;;;;;;;13.57;9.18;;;896.30;1945.60;;;;;;5066407;28;20485;-72
2023/08/24 08:30:33;;;;;;;14.50;9.38;;;896.50;1894.40;;;;;;5071407;28;20035;-73
2023/08/24 08:32:59;;;;;;;19.40;10.20;;;896.60;1920.00;;;;;;5064876;28;20035;-71
2023/08/24 08:35:25;;;;;;;16.88;9.57;;;896.90;1894.40;;;;;;5072141;28;20024;-71
2023/08/24 08:37:53;;;;;;;14.48;9.57;;;896.90;1868.80;;;;;;5064992;28;20526;-73
2023/08/24 08:40:19;;;;;;;14.63;9.15;;;921.60;1843.20;;;;;;5071918;28;20052;-71
2023/08/24 08:42:45;;;;;;;11.45;8.68;;;921.70;1843.20;;;;;;5064416;28;20048;-71
2023/08/24 08:45:11;;;;;;;11.60;9.15;;;921.60;1817.60;;;;;;5064222;28;20075;-72
2023/08/24 08:47:37;;;;;;;12.95;9.30;;;921.80;1817.60;;;;;;5062633;28;20032;-72
2023/08/24 08:50:04;;;;;;;12.20;8.55;;;922.00;1817.60;;;;;;5067328;28;20094;-72
2023/08/24 08:52:33;;;;;;;14.50;8.40;;;922.00;1792.00;;;;;;5067136;28;20029;-72
2023/08/24 08:54:59;;;;;;;15.40;11.18;;;922.10;1792.00;;;;;;5061906;28;20057;-71
2023/08/24 08:57:25;;;;;;;15.95;9.80;;;922.20;1740.80;;;;;;5069265;28;20025;-71
2023/08/24 08:59:55;;;;;;;12.55;9.60;;;922.10;1715.20;;;;;;5068782;28;20020;-71
2023/08/24 09:02:22;;;;;;;20.10;8.85;;;922.30;1766.40;;;;;;5073056;28;20080;-72
2023/08/24 09:04:50;;;;;;;10.48;8.20;;;922.40;1715.20;;;;;;5068188;28;20016;-72
2023/08/24 09:07:16;;;;;;;10.35;8.70;;;922.30;1740.80;;;;;;5063366;28;20055;-73
2023/08/24 09:09:43;;;;;;;15.23;9.38;;;922.50;1715.20;;;;;;5061637;28;20126;-73
2023/08/24 09:12:09;;;;;;;14.73;9.60;;;947.20;1689.60;;;;;;5067201;28;20365;-72
2023/08/24 09:14:35;;;;;;;11.73;8.48;;;947.30;1689.60;;;;;;5064862;28;20021;-71
2023/08/24 09:17:01;;;;;;;13.57;9.60;;;947.40;1664.00;;;;;;5072078;28;20166;-70
2023/08/24 09:19:31;;;;;;;13.02;8.57;;;947.50;1664.00;;;;;;5064047;28;20048;-77
2023/08/24 09:22:01;;;;;;;14.85;9.10;;;947.40;1664.00;;;;;;5069101;28;20036;-72
2023/08/24 09:24:31;;;;;;;12.07;8.73;;;947.70;1638.40;;;;;;5072694;28;20017;-71
2023/08/24 09:26:57;;;;;;;15.80;8.18;;;947.90;1587.20;;;;;;5064140;28;20020;-71
2023/08/24 09:29:23;;;;;;;13.00;8.70;;;947.90;1612.80;;;;;;5068064;28;20024;-72
2023/08/24 09:31:51;;;;;;;9.60;8.32;;;948.00;1587.20;;;;;;5066072;28;20032;-72
2023/08/24 09:34:20;;;;;;;10.40;9.30;;;948.00;1612.80;;;;;;5061804;28;20019;-72
2023/08/24 09:36:46;;;;;;;10.73;9.35;;;948.10;1587.20;;;;;;5069600;28;20075;-72
2023/08/24 09:39:16;;;;;;;12.48;8.48;;;948.00;1612.80;;;;;;5066936;28;20016;-71
2023/08/24 09:41:44;;;;;;;10.52;9.18;;;948.10;1561.60;;;;;;5068128;28;20045;-72
2023/08/24 09:44:10;;;;;;;15.68;10.80;;;948.10;1587.20;;;;;;5066983;28;20533;-72
2023/08/24 09:46:38;;;;;;;13.43;9.45;;;973.00;1587.20;;;;;;5066870;28;20047;-71
2023/08/24 09:49:05;;;;;;;13.07;8.38;;;973.20;1561.60;;;;;;5068984;28;20028;-72
2023/08/24 09:51:33;;;;;;;15.38;8.25;;;948.10;1612.80;;;;;;5067372;28;20029;-73
2023/08/24 09:54:00;;;;;;;11.90;8.57;;;947.30;1638.40;;;;;;5067358;28;20012;-71
2023/08/24 09:56:27;;;;;;;13.85;8.85;;;947.50;1587.20;;;;;;5054321;28;20035;-72
2023/08/24 09:58:57;;;;;;;13.43;9.55;;;948.10;1561.60;;;;;;5067485;28;20085;-72
2023/08/24 10:01:24;;;;;;;12.25;8.57;;;972.90;1612.80;;;;;;5071849;28;20032;-72
2023/08/24 10:03:56;;;;;;;13.18;8.13;;;973.20;1587.20;;;;;;5070971;28;20025;-72
2023/08/24 10:06:24;;;;;;;11.40;7.03;;;973.20;1587.20;;;;;;5064058;28;20358;-72
2023/08/24 10:08:58;;;;;;;9.63;8.02;;;973.30;1536.00;;;;;;5060913;28;20023;-72
2023/08/24 10:11:28;;;;;;;9.95;7.13;;;973.20;1510.40;;;;;;5071297;28;20024;-73
2023/08/24 10:14:08;;;;;;;8.25;7.28;;;973.50;1484.80;;;;;;5061380;28;20388;-71
2023/08/24 10:16:36;;;;;;;12.40;7.15;;;973.70;1484.80;;;;;;5069929;28;20407;-73
2023/08/24 10:19:03;;;;;;;12.70;7.28;;;973.70;1408.00;;;;;;5063966;28;20041;-72
2023/08/24 10:21:29;;;;;;;9.75;7.85;;;973.60;1484.80;;;;;;5064994;28;20037;-71
2023/08/24 10:23:58;;;;;;;9.00;7.80;;;973.00;1510.40;;;;;;5060080;28;20465;-71
2023/08/24 10:26:24;;;;;;;8.73;7.82;;;973.20;1459.20;;;;;;5072266;28;20051;-73
2023/08/24 10:28:51;;;;;;;8.18;6.97;;;973.20;1484.80;;;;;;5067939;28;20021;-73
2023/08/24 10:31:17;;;;;;;12.13;7.47;;;973.60;1433.60;;;;;;5075200;28;20030;-73
2023/08/24 10:33:45;;;;;;;12.02;8.10;;;973.70;1408.00;;;;;;5065498;28;20107;-72
2023/08/24 10:36:14;;;;;;;12.75;6.85;;;998.40;1408.00;;;;;;5068422;28;20021;-72
2023/08/24 10:38:43;;;;;;;10.90;6.75;;;998.40;1408.00;;;;;;5065178;28;20464;-71
2023/08/24 10:41:12;;;;;;;7.80;6.70;;;973.70;1382.40;;;;;;5068311;28;20377;-71
2023/08/24 10:43:39;;;;;;;9.50;7.47;;;998.50;1356.80;;;;;;5066582;28;20074;-72
2023/08/24 10:46:12;;;;;;;13.25;7.45;;;998.80;1433.60;;;;;;5069762;28;20025;-71
2023/08/24 10:48:44;;;;;;;12.10;6.70;;;998.80;1382.40;;;;;;5068236;28;20086;-75
2023/08/24 10:51:17;;;;;;;9.77;7.35;;;998.80;1356.80;;;;;;5071405;28;20502;-71
2023/08/24 10:53:48;;;;;;;18.55;7.93;;;998.90;1356.80;;;;;;5071146;28;20048;-71
2023/08/24 10:56:16;;;;;;;13.18;7.75;;;998.80;1382.40;;;;;;5065149;28;20087;-72
2023/08/24 10:58:43;;;;;;;12.85;7.45;;;973.30;1408.00;;;;;;5063742;28;20029;-71
2023/08/24 11:01:17;;;;;;;8.45;6.70;;;973.60;1382.40;;;;;;5066891;28;20024;-71
2023/08/24 11:03:50;;;;;;;9.70;7.20;;;973.60;1331.20;;;;;;5067061;28;20017;-71
2023/08/24 11:06:24;;;;;;;11.70;6.85;;;998.40;1331.20;;;;;;5073130;28;20108;-72
2023/08/24 11:09:13;;;;;;;10.02;7.13;;;998.50;1331.20;;;;;;5070646;28;20538;-73
2023/08/24 11:11:39;;;;;;;8.50;7.25;;;998.80;1356.80;;;;;;5064521;28;20099;-73
2023/08/24 11:14:22;;;;;;;11.73;6.43;;;973.50;1356.80;;;;;;5068388;28;20032;-75
2023/08/24 11:16:48;;;;;;;9.15;6.20;;;948.10;1331.20;;;;;;5070754;28;20016;-72
2023/08/24 11:19:15;;;;;;;8.77;6.15;;;973.20;1305.60;;;;;;5065877;28;20500;-75
2023/08/24 11:21:45;;;;;;;8.35;6.50;;;973.60;1356.80;;;;;;5069613;28;20040;-74
2023/08/24 11:24:16;;;;;;;9.13;6.05;;;973.60;1356.80;;;;;;5072354;28;20012;-74
2023/08/24 11:26:49;;;;;;;12.45;7.28;;;973.70;1280.00;;;;;;5068698;28;20099;-74
2023/08/24 11:29:15;;;;;;;9.20;6.53;;;973.70;1254.40;;;;;;5066162;28;20111;-78
2023/08/24 11:31:41;;;;;;;9.95;7.57;;;998.40;1254.40;;;;;;5068687;28;20417;-71
2023/08/24 11:34:07;;;;;;;9.60;6.03;;;998.40;1254.40;;;;;;5070846;28;20024;-72
2023/08/24 11:36:44;;;;;;;9.07;6.63;;;998.70;1228.80;;;;;;5064866;28;20427;-77
2023/08/24 11:39:16;;;;;;;17.60;10.15;;;973.70;1254.40;;;;;;5074017;28;20021;-76
2023/08/24 11:41:42;;;;;;;13.07;9.68;;;998.40;1305.60;;;;;;5066219;28;20135;-72
2023/08/24 11:44:08;;;;;;;8.30;6.22;;;973.70;1305.60;;;;;;5065625;28;20111;-72
2023/08/24 11:46:34;;;;;;;8.93;5.80;;;973.40;1280.00;;;;;;5073116;28;20384;-71
2023/08/24 11:49:00;;;;;;;6.28;4.97;;;998.80;1228.80;;;;;;5074122;28;20035;-73
2023/08/24 11:51:25;;;;;;;14.75;6.63;;;1024.10;1203.20;;;;;;5064224;28;20452;-71
2023/08/24 11:53:51;;;;;;;9.45;5.95;;;999.10;1203.20;;;;;;5070037;28;20043;-71
2023/08/24 11:56:18;;;;;;;10.90;6.07;;;999.10;1177.60;;;;;;5059756;28;20045;-72
2023/08/24 11:58:47;;;;;;;11.98;6.70;;;999.30;1177.60;;;;;;5065520;28;20032;-73
2023/08/24 12:01:13;;;;;;;17.30;6.07;;;1024.00;1203.20;;;;;;5073853;28;20021;-74
2023/08/24 12:03:40;;;;;;;9.10;5.20;;;998.90;1228.80;;;;;;5065156;28;20044;-72